RJNO(METAR)
08/25 16:00
RJNO 250700Z 28006KT 9999 FEW020 SCT030 28/21 Q1012 RMK A2990=
戻る
トップページへ戻る
IMOC Co,.Ltd.